createdAt,value
2017-11-13T00:03:22.016Z,1001.18
2017-11-13T00:08:18.680Z,1001.18
2017-11-13T00:13:15.100Z,1001.34
2017-11-13T00:18:12.567Z,1001.24
2017-11-13T00:23:08.555Z,1001.40
2017-11-13T00:28:04.947Z,1001.50
2017-11-13T00:33:01.287Z,1001.66
2017-11-13T00:37:57.713Z,1001.76
2017-11-13T00:42:53.215Z,1001.82
2017-11-13T00:47:48.952Z,1001.72
2017-11-13T00:52:45.638Z,1001.83
2017-11-13T00:57:41.876Z,1001.74
2017-11-13T01:02:38.533Z,1001.91
2017-11-13T01:07:34.942Z,1001.87
2017-11-13T01:12:30.900Z,1002.08
2017-11-13T01:17:27.627Z,1002.04
2017-11-13T01:22:23.910Z,1002.19
2017-11-13T01:27:20.460Z,1002.27
2017-11-13T01:32:15.892Z,1002.32
2017-11-13T01:37:13.878Z,1002.38
2017-11-13T01:42:10.852Z,1002.22
2017-11-13T01:47:07.251Z,1002.34
2017-11-13T01:52:03.648Z,1002.31
2017-11-13T01:56:59.630Z,1002.24
2017-11-13T02:01:55.054Z,1002.35
2017-11-13T02:06:52.265Z,1002.35
2017-11-13T02:11:48.666Z,1002.40
2017-11-13T02:16:44.833Z,1002.50
2017-11-13T02:21:40.625Z,1002.33
2017-11-13T02:26:38.244Z,1002.36
2017-11-13T02:31:34.516Z,1002.58
2017-11-13T02:36:31.132Z,1002.78
2017-11-13T02:41:26.865Z,1002.87
2017-11-13T02:46:23.888Z,1002.94
2017-11-13T02:51:20.389Z,1002.96
2017-11-13T02:56:17.018Z,1003.02
2017-11-13T03:01:14.128Z,1003.12
2017-11-13T03:06:11.521Z,1003.13
2017-11-13T03:11:08.070Z,1003.32
2017-11-13T03:16:03.115Z,1003.34
2017-11-13T03:20:59.997Z,1003.42
2017-11-13T03:25:56.475Z,1003.56
2017-11-13T03:30:52.891Z,1003.65
2017-11-13T03:35:48.501Z,1003.75
2017-11-13T03:40:46.311Z,1003.83
2017-11-13T03:45:42.757Z,1003.80
2017-11-13T03:50:42.254Z,1003.90
2017-11-13T03:55:38.038Z,1004.00
2017-11-13T04:00:34.505Z,1004.00
2017-11-13T04:05:30.723Z,1004.13
2017-11-13T04:10:27.562Z,1004.10
2017-11-13T04:15:25.190Z,1004.25
2017-11-13T04:20:22.517Z,1004.42
2017-11-13T04:25:17.968Z,1004.49
2017-11-13T04:30:14.647Z,1004.48
2017-11-13T04:35:10.820Z,1004.67
2017-11-13T04:40:07.539Z,1004.80
2017-11-13T04:45:03.815Z,1004.79
2017-11-13T04:50:00.458Z,1004.81
2017-11-13T04:54:56.868Z,1004.86
2017-11-13T04:59:52.822Z,1004.78
2017-11-13T05:04:49.513Z,1004.87
2017-11-13T05:09:46.081Z,1005.05
2017-11-13T05:14:41.420Z,1005.06
2017-11-13T05:19:38.227Z,1005.14
2017-11-13T05:24:33.858Z,1005.21
2017-11-13T05:29:30.404Z,1005.30
2017-11-13T05:34:27.732Z,1005.31
2017-11-13T05:39:24.290Z,1005.40
2017-11-13T05:44:20.861Z,1005.46
2017-11-13T05:49:18.133Z,1005.57
2017-11-13T05:54:14.610Z,1005.72
2017-11-13T05:59:09.973Z,1005.90
2017-11-13T06:04:06.561Z,1006.00
2017-11-13T06:09:02.710Z,1006.05
2017-11-13T06:14:01.032Z,1006.05
2017-11-13T06:18:57.351Z,1006.15
2017-11-13T06:23:53.633Z,1006.23
2017-11-13T06:28:49.932Z,1006.23
2017-11-13T06:33:45.291Z,1006.38
2017-11-13T06:38:43.840Z,1006.49
2017-11-13T06:43:40.183Z,1006.61
2017-11-13T06:48:36.726Z,1006.73
2017-11-13T06:53:32.158Z,1006.75
2017-11-13T06:58:29.064Z,1006.84
2017-11-13T07:03:25.603Z,1006.99
2017-11-13T07:08:22.204Z,1007.04
2017-11-13T07:13:17.601Z,1007.19
2017-11-13T07:18:14.316Z,1007.29
2017-11-13T07:23:10.235Z,1007.40
2017-11-13T07:28:06.065Z,1007.46
2017-11-13T07:33:02.761Z,1007.48
2017-11-13T07:37:58.100Z,1007.41
2017-11-13T07:42:54.783Z,1007.49
2017-11-13T07:47:50.912Z,1007.57
2017-11-13T07:52:47.359Z,1007.68
2017-11-13T07:57:43.043Z,1007.75
2017-11-13T08:02:40.799Z,1007.91
2017-11-13T08:07:38.081Z,1007.94
2017-11-13T08:12:33.323Z,1008.07
2017-11-13T08:17:30.392Z,1008.27
2017-11-13T08:22:26.898Z,1008.46
2017-11-13T08:27:24.743Z,1008.47
2017-11-13T08:32:22.258Z,1008.50
2017-11-13T08:37:18.055Z,1008.52
2017-11-13T08:42:13.888Z,1008.60
2017-11-13T08:47:11.769Z,1008.66
2017-11-13T08:52:09.031Z,1008.71
2017-11-13T08:57:04.334Z,1008.79
2017-11-13T09:02:01.702Z,1009.00
2017-11-13T09:06:57.497Z,1008.96
2017-11-13T09:11:54.554Z,1008.96
2017-11-13T09:16:50.151Z,1009.12
2017-11-13T09:21:46.202Z,1009.05
2017-11-13T09:26:42.752Z,1009.07
2017-11-13T09:31:43.002Z,1009.16
2017-11-13T09:36:39.616Z,1009.27
2017-11-13T09:41:37.635Z,1009.38
2017-11-13T09:46:33.805Z,1009.46
2017-11-13T09:51:30.442Z,1009.47
2017-11-13T09:56:26.016Z,1009.52
2017-11-13T10:01:23.449Z,1009.53
2017-11-13T10:06:20.502Z,1009.71
2017-11-13T10:11:17.585Z,1009.70
2017-11-13T10:16:14.426Z,1009.72
2017-11-13T10:21:10.895Z,1009.80
2017-11-13T10:26:07.380Z,1009.91
2017-11-13T10:31:02.507Z,1009.91
2017-11-13T10:36:00.318Z,1010.02
2017-11-13T10:40:55.821Z,1010.06
2017-11-13T10:45:51.987Z,1010.06
2017-11-13T10:50:49.134Z,1009.99
2017-11-13T10:55:44.583Z,1010.04
2017-11-13T11:00:40.386Z,1010.05
2017-11-13T11:05:37.239Z,1009.99
2017-11-13T11:10:33.772Z,1009.94
2017-11-13T11:15:30.278Z,1010.15
2017-11-13T11:20:25.673Z,1010.15
2017-11-13T11:25:21.414Z,1010.20
2017-11-13T11:30:17.268Z,1010.16
2017-11-13T11:35:14.775Z,1010.08
2017-11-13T11:40:10.214Z,1010.10
2017-11-13T11:45:06.008Z,1010.14
2017-11-13T11:50:01.994Z,1010.19
2017-11-13T11:54:58.846Z,1010.27
2017-11-13T11:59:54.474Z,1010.28
2017-11-13T12:04:49.845Z,1010.32
2017-11-13T12:09:46.641Z,1010.34
2017-11-13T12:14:43.245Z,1010.45
2017-11-13T12:19:39.713Z,1010.57
2017-11-13T12:24:37.183Z,1010.60
2017-11-13T12:29:33.300Z,1010.62
2017-11-13T12:34:29.867Z,1010.62
2017-11-13T12:39:26.585Z,1010.64
2017-11-13T12:44:23.488Z,1010.70
2017-11-13T12:49:18.404Z,1010.79
2017-11-13T12:54:13.912Z,1010.68
2017-11-13T12:59:10.051Z,1010.75
2017-11-13T13:04:06.785Z,1010.70
2017-11-13T13:09:03.678Z,1010.73
2017-11-13T13:13:59.623Z,1010.77
2017-11-13T13:18:58.131Z,1010.77
2017-11-13T13:23:54.398Z,1010.77
2017-11-13T13:28:50.815Z,1010.81
2017-11-13T13:33:47.339Z,1010.87
2017-11-13T13:38:43.797Z,1010.88
2017-11-13T13:43:41.398Z,1010.89
2017-11-13T13:48:37.851Z,1010.94
2017-11-13T13:53:33.795Z,1011.02
2017-11-13T13:58:29.419Z,1011.11
2017-11-13T14:03:27.779Z,1011.06
2017-11-13T14:08:23.957Z,1011.12
2017-11-13T14:13:20.475Z,1011.22
2017-11-13T14:18:15.709Z,1011.15
2017-11-13T14:23:11.670Z,1011.14
2017-11-13T14:28:07.236Z,1011.17
2017-11-13T14:33:02.868Z,1011.22
2017-11-13T14:37:58.649Z,1011.16
2017-11-13T14:42:55.363Z,1011.23
2017-11-13T14:47:51.461Z,1011.27
2017-11-13T14:52:46.727Z,1011.25
2017-11-13T14:57:43.673Z,1011.35
2017-11-13T15:02:39.344Z,1011.47
2017-11-13T15:07:34.942Z,1011.53
2017-11-13T15:12:31.796Z,1011.58
2017-11-13T15:17:28.254Z,1011.66
2017-11-13T15:22:24.917Z,1011.66
2017-11-13T15:27:21.537Z,1011.79
2017-11-13T15:32:19.148Z,1011.90
2017-11-13T15:37:15.350Z,1012.05
2017-11-13T15:42:11.883Z,1012.02
2017-11-13T15:47:08.356Z,1012.06
2017-11-13T15:52:03.721Z,1012.21
2017-11-13T15:56:59.827Z,1012.35
2017-11-13T16:01:57.516Z,1012.34
2017-11-13T16:06:54.801Z,1012.25
2017-11-13T16:11:50.188Z,1012.26
2017-11-13T16:16:46.920Z,1012.20
2017-11-13T16:21:42.477Z,1012.26
2017-11-13T16:26:38.241Z,1012.36
2017-11-13T16:31:34.034Z,1012.41
2017-11-13T16:36:30.685Z,1012.57
2017-11-13T16:41:27.362Z,1012.58
2017-11-13T16:46:22.852Z,1012.69
2017-11-13T16:51:18.681Z,1012.75
2017-11-13T16:56:15.376Z,1012.92
2017-11-13T17:01:12.912Z,1012.90
2017-11-13T17:06:10.212Z,1013.05
2017-11-13T17:11:06.637Z,1013.12
2017-11-13T17:16:03.022Z,1013.08
2017-11-13T17:20:58.441Z,1013.27
2017-11-13T17:25:54.264Z,1013.33
2017-11-13T17:30:51.207Z,1013.32
2017-11-13T17:35:48.307Z,1013.50
2017-11-13T17:40:43.515Z,1013.54
2017-11-13T17:45:39.354Z,1013.59
2017-11-13T17:50:35.903Z,1013.62
2017-11-13T17:55:36.158Z,1013.58
2017-11-13T18:00:31.825Z,1013.57
2017-11-13T18:05:30.072Z,1013.71
2017-11-13T18:10:25.205Z,1013.75
2017-11-13T18:15:21.025Z,1013.68
2017-11-13T18:20:18.122Z,1013.77
2017-11-13T18:25:14.484Z,1013.91
2017-11-13T18:30:11.281Z,1013.91
2017-11-13T18:35:09.525Z,1013.88
2017-11-13T18:40:07.426Z,1013.87
2017-11-13T18:45:02.541Z,1013.85
2017-11-13T18:50:00.466Z,1014.05
2017-11-13T18:54:56.078Z,1014.10
2017-11-13T18:59:52.708Z,1014.08
2017-11-13T19:04:48.984Z,1014.12
2017-11-13T19:09:45.782Z,1014.11
2017-11-13T19:14:42.305Z,1014.05
2017-11-13T19:19:38.650Z,1014.04
2017-11-13T19:24:34.743Z,1014.07
2017-11-13T19:29:30.370Z,1014.06
2017-11-13T19:34:27.093Z,1014.06
2017-11-13T19:39:23.493Z,1014.12
2017-11-13T19:44:19.691Z,1014.23
2017-11-13T19:49:15.372Z,1014.31
2017-11-13T19:54:13.616Z,1014.37
2017-11-13T19:59:09.848Z,1014.41
2017-11-13T20:04:07.000Z,1014.45
2017-11-13T20:09:03.268Z,1014.42
2017-11-13T20:13:59.669Z,1014.52
2017-11-13T20:18:56.187Z,1014.49
2017-11-13T20:23:52.535Z,1014.57
2017-11-13T20:28:50.134Z,1014.60
2017-11-13T20:33:47.396Z,1014.66
2017-11-13T20:38:43.069Z,1014.70
2017-11-13T20:43:40.580Z,1014.78
2017-11-13T20:48:35.858Z,1014.78
2017-11-13T20:53:32.636Z,1014.79
2017-11-13T20:58:27.967Z,1014.89
2017-11-13T21:03:24.262Z,1014.96
2017-11-13T21:08:20.626Z,1015.03
2017-11-13T21:13:17.761Z,1014.97
2017-11-13T21:18:14.229Z,1015.00
2017-11-13T21:23:09.361Z,1015.02
2017-11-13T21:28:05.864Z,1015.02
2017-11-13T21:33:01.469Z,1015.11
2017-11-13T21:37:58.349Z,1015.14
2017-11-13T21:42:53.947Z,1015.15
2017-11-13T21:47:50.648Z,1015.31
2017-11-13T21:52:45.917Z,1015.18
2017-11-13T21:57:41.580Z,1015.20
2017-11-13T22:02:37.283Z,1015.13
2017-11-13T22:07:33.315Z,1015.16
2017-11-13T22:12:29.978Z,1015.21
2017-11-13T22:17:28.179Z,1015.29
2017-11-13T22:22:23.434Z,1015.15
2017-11-13T22:27:20.155Z,1015.20
2017-11-13T22:32:15.641Z,1015.21
2017-11-13T22:37:11.045Z,1015.20
2017-11-13T22:42:06.805Z,1015.39
2017-11-13T22:47:02.559Z,1015.31
2017-11-13T22:51:59.209Z,1015.31
2017-11-13T22:56:54.730Z,1015.30
2017-11-13T23:01:51.532Z,1015.44
2017-11-13T23:06:47.734Z,1015.40
2017-11-13T23:11:43.249Z,1015.43
2017-11-13T23:16:39.964Z,1015.34
2017-11-13T23:21:36.527Z,1015.45
2017-11-13T23:26:32.080Z,1015.57
2017-11-13T23:31:27.889Z,1015.55
2017-11-13T23:36:24.628Z,1015.55
2017-11-13T23:41:20.320Z,1015.61
2017-11-13T23:46:17.358Z,1015.59
2017-11-13T23:51:14.993Z,1015.56
2017-11-13T23:56:11.027Z,1015.58
